Lester B. Pearson International Airport
CYYZ : now visible

Airfield :











YOU CAN JOIN US ON...

 
LOGIN :

Register | Disclaimer

   EN    FR    IT 

 









Legend :    VFR   Marginal VFR   IFR   Intensive IFR   Very Intensive IFR
Visi :
Ceiling :
>= 8 km
>= 3000ft
5 to 8 km
1000 to 3000 ft
1500m to 5 km
500 to 1000 ft
800 to 1500m
200 to 500 ft
< 800m
< 200 ft
Symbols :   Thunderstorms  Fog  Heavy snow  Heavy precipitations  Wind > 20 kt






- Airport Elevation : 569 ft
- IATA code : YYZ


CYYZ - Lester B. Pearson International

CURRENT METAR :
  • 292300Z 01014G21KT 15SM FEW045 FEW250 17/04 A3002 RMK CU1CI2 CU TR SLP170 DENSITY ALT 800FT

EXPIRED METARs :
  • 292200Z 33015KT 15SM FEW045 FEW080 SCT250 18/02 A3002 RMK CU1AC1CI4 CU TR AC TR SLP168 DENSITY ALT 1000FT
  • 292100Z 35015KT 15SM FEW045 FEW080 SCT250 18/M03 A3001 RMK CU1AC1CI4 CU TR AC TR SLP166 DENSITY ALT 1000FT
  • 292000Z 34013G20KT 15SM FEW050 FEW080 BKN250 19/M01 A3001 RMK CU1AC1CI4 CU TR SLP164 DENSITY ALT 1100FT
  • 291900Z 34016KT 15SM FEW050 BKN250 19/M01 A3000 RMK CU1CI4 SLP161 DENSITY ALT 1200FT

TAF TAF CYYZ
Valid from the 30 at 00:00 until the 31 at 06:00 UTC


292342Z 3000/3106 34012G22KT P6SM FEW040 SCT240
FM300200 34010KT P6SM SKC
FM301500 35008G18KT P6SM SKC
BECMG 3018/3020 34012KT RMK NXT FCST BY 300300Z
CZYZ FIR / North America



MET'MAP, your aeronautical weather chart ! - Copyright ORBIFLY December 2007 - Disclaimer

ORBIFLY MET'MAP TEAM :

Programming & Development : Alexandra Zaïnal
Original concept : Baudouin d'Aumeries
Technical & hardware support : Manuel Goepfert
Assistance : Marc-Olivier Méhu




SOURCES & CREDITS :

   NOAA       Earth
Advisory